Time;durP1;ratioP1;P1;durP2;ratioP2;P2;SDS_P1;SDS_P2;PMS_P1;PMS_P2;Temp;Humidity;BMP_temperature;BMP_pressure;BME280_temperature;BME280_humidity;BME280_pressure;Samples;Min_cycle;Max_cycle;Signal;HPM_P1;HPM_P2
2022/08/24 00:01:26;;;;;;;4.73;4.33;;;19.50;99.90;;;;;;5072263;28;20639;-70
2022/08/24 00:03:56;;;;;;;5.70;4.07;;;19.20;99.90;;;;;;5072875;28;20653;-70
2022/08/24 00:06:23;;;;;;;5.33;3.93;;;19.00;99.90;;;;;;5073110;28;20674;-70
2022/08/24 00:08:52;;;;;;;4.60;4.10;;;18.80;99.90;;;;;;5073170;28;21163;-70
2022/08/24 00:11:19;;;;;;;4.50;3.90;;;18.80;99.90;;;;;;5073355;28;20571;-70
2022/08/24 00:13:48;;;;;;;9.33;4.10;;;18.90;99.90;;;;;;5073189;28;20582;-70
2022/08/24 00:16:16;;;;;;;4.70;4.40;;;19.00;99.90;;;;;;5073037;28;20593;-70
2022/08/24 00:18:44;;;;;;;6.00;4.80;;;19.10;99.90;;;;;;5072935;28;20739;-70
2022/08/24 00:21:12;;;;;;;9.57;4.47;;;19.20;99.90;;;;;;5073064;28;21190;-70
2022/08/24 00:23:39;;;;;;;3.70;3.50;;;19.20;99.90;;;;;;5073328;28;20640;-70
2022/08/24 00:26:06;;;;;;;7.17;4.70;;;19.30;99.90;;;;;;5072962;28;20695;-70
2022/08/24 00:28:33;;;;;;;4.10;3.80;;;19.40;99.90;;;;;;5073186;28;20571;-70
2022/08/24 00:31:00;;;;;;;4.10;3.87;;;19.30;99.90;;;;;;5073224;28;20606;-70
2022/08/24 00:33:27;;;;;;;4.47;3.90;;;19.20;99.90;;;;;;5072756;28;21008;-70
2022/08/24 00:35:53;;;;;;;4.80;3.90;;;19.00;99.90;;;;;;5072432;28;20637;-70
2022/08/24 00:38:19;;;;;;;4.57;4.07;;;18.70;99.90;;;;;;5072783;28;20577;-70
2022/08/24 00:40:48;;;;;;;5.40;4.90;;;18.60;99.90;;;;;;5072656;28;21173;-70
2022/08/24 00:43:19;;;;;;;4.63;4.10;;;18.40;99.90;;;;;;5072339;28;21038;-70
2022/08/24 00:45:47;;;;;;;4.80;4.40;;;18.30;99.90;;;;;;5072704;28;20620;-70
2022/08/24 00:48:21;;;;;;;7.60;4.00;;;18.30;99.90;;;;;;5072591;28;20699;-70
2022/08/24 00:50:54;;;;;;;10.33;4.57;;;18.20;99.90;;;;;;5072473;28;20575;-70
2022/08/24 00:53:42;;;;;;;5.00;4.50;;;18.40;99.90;;;;;;5072463;28;21043;-70
2022/08/24 00:56:12;;;;;;;4.27;3.97;;;18.50;99.90;;;;;;5071153;28;20618;-70
2022/08/24 00:58:47;;;;;;;4.43;4.03;;;18.60;99.90;;;;;;5073362;28;20656;-70
2022/08/24 01:01:14;;;;;;;4.53;3.90;;;18.60;99.90;;;;;;5076603;28;20622;-70
2022/08/24 01:03:42;;;;;;;3.97;3.67;;;18.70;99.90;;;;;;5076515;28;20579;-70
2022/08/24 01:06:09;;;;;;;4.43;3.73;;;18.70;99.90;;;;;;5076274;28;20594;-70
2022/08/24 01:08:36;;;;;;;4.70;4.20;;;18.70;99.90;;;;;;5074777;28;20614;-70
2022/08/24 01:11:07;;;;;;;6.00;4.07;;;18.80;99.90;;;;;;5074723;28;20648;-70
2022/08/24 01:13:34;;;;;;;4.80;4.40;;;18.90;99.90;;;;;;5076656;28;20569;-70
2022/08/24 01:16:06;;;;;;;3.93;3.70;;;18.90;99.90;;;;;;5076157;28;20969;-70
2022/08/24 01:18:50;;;;;;;4.67;4.37;;;18.90;99.90;;;;;;5076342;28;20566;-69
2022/08/24 01:21:48;;;;;;;4.67;4.27;;;18.70;99.90;;;;;;5076262;28;20610;-70
2022/08/24 01:24:14;;;;;;;4.33;4.03;;;18.60;99.90;;;;;;5076139;28;20967;-70
2022/08/24 01:26:47;;;;;;;4.83;4.40;;;18.40;99.90;;;;;;5074558;28;21211;-70
2022/08/24 01:29:21;;;;;;;4.73;4.33;;;18.40;99.90;;;;;;5075865;28;20632;-70
2022/08/24 01:31:47;;;;;;;4.13;3.87;;;18.40;99.90;;;;;;5076422;28;20566;-70
2022/08/24 01:34:14;;;;;;;4.60;4.20;;;18.30;99.90;;;;;;5076278;28;21080;-70
2022/08/24 01:36:49;;;;;;;4.97;4.67;;;18.40;99.90;;;;;;5076176;28;20590;-70
2022/08/24 01:39:21;;;;;;;4.80;4.40;;;18.10;99.90;;;;;;5076316;28;20569;-70
2022/08/24 01:41:47;;;;;;;12.70;5.33;;;18.10;99.90;;;;;;5076197;28;20567;-70
2022/08/24 01:44:14;;;;;;;5.00;4.47;;;18.20;99.90;;;;;;5075914;28;20562;-70
2022/08/24 01:46:51;;;;;;;7.03;4.80;;;18.10;99.90;;;;;;5075376;28;20668;-70
2022/08/24 01:49:18;;;;;;;8.90;5.07;;;18.00;99.90;;;;;;5075505;28;20616;-70
2022/08/24 01:51:45;;;;;;;5.87;4.20;;;17.90;99.90;;;;;;5090668;28;20610;-70
2022/08/24 01:54:12;;;;;;;7.60;4.60;;;17.90;99.90;;;;;;5074890;28;20610;-70
2022/08/24 01:56:39;;;;;;;9.40;5.17;;;17.90;99.90;;;;;;5073838;28;21164;-70
2022/08/24 01:59:06;;;;;;;6.50;5.03;;;17.70;99.90;;;;;;5075659;28;20592;-70
2022/08/24 02:01:38;;;;;;;8.30;4.50;;;17.40;99.90;;;;;;5075418;28;20610;-70
2022/08/24 02:04:06;;;;;;;5.50;4.90;;;17.10;99.90;;;;;;5075293;28;20641;-70
2022/08/24 02:06:32;;;;;;;5.53;5.03;;;16.90;99.90;;;;;;5075333;28;20578;-70
2022/08/24 02:09:00;;;;;;;6.20;5.60;;;16.80;99.90;;;;;;5074936;28;20671;-70
2022/08/24 02:11:27;;;;;;;6.00;4.30;;;16.70;99.90;;;;;;5073945;28;20579;-70
2022/08/24 02:13:54;;;;;;;7.10;5.07;;;16.60;99.90;;;;;;5073454;28;20629;-69
2022/08/24 02:16:20;;;;;;;6.70;4.77;;;16.70;99.90;;;;;;5074885;28;20624;-70
2022/08/24 02:18:47;;;;;;;6.27;5.63;;;16.80;99.90;;;;;;5074751;28;20938;-69
2022/08/24 02:21:14;;;;;;;5.50;5.00;;;16.90;99.90;;;;;;5075276;28;20570;-69
2022/08/24 02:23:41;;;;;;;5.93;4.77;;;16.90;99.90;;;;;;5075120;28;20627;-70
2022/08/24 02:26:09;;;;;;;5.60;5.10;;;16.80;99.90;;;;;;5075094;28;20549;-71
2022/08/24 02:28:37;;;;;;;6.50;5.10;;;16.90;99.90;;;;;;5075062;28;20634;-70
2022/08/24 02:31:05;;;;;;;6.37;5.37;;;17.00;99.90;;;;;;5074939;28;20610;-70
2022/08/24 02:33:37;;;;;;;5.33;4.93;;;17.10;99.90;;;;;;5074633;28;20586;-70
2022/08/24 02:36:05;;;;;;;8.53;5.67;;;17.20;99.90;;;;;;5075006;28;20672;-70
2022/08/24 02:38:32;;;;;;;6.40;5.80;;;17.40;99.90;;;;;;5074660;28;20578;-70
2022/08/24 02:40:59;;;;;;;5.53;5.13;;;17.60;99.90;;;;;;5074998;28;20574;-70
2022/08/24 02:43:26;;;;;;;9.17;5.83;;;17.60;99.90;;;;;;5073693;28;20626;-70
2022/08/24 02:45:52;;;;;;;6.17;5.57;;;17.60;99.90;;;;;;5074698;28;21153;-70
2022/08/24 02:48:19;;;;;;;9.77;5.43;;;17.60;99.90;;;;;;5074113;28;21002;-70
2022/08/24 02:50:49;;;;;;;7.63;6.20;;;17.60;99.90;;;;;;5074530;28;20941;-70
2022/08/24 02:53:16;;;;;;;7.00;5.50;;;17.70;99.90;;;;;;5074350;28;21121;-72
2022/08/24 02:55:44;;;;;;;6.20;5.60;;;17.90;99.90;;;;;;5074531;28;20629;-70
2022/08/24 02:58:12;;;;;;;7.70;6.17;;;17.90;99.90;;;;;;5074183;28;20618;-71
2022/08/24 03:00:45;;;;;;;8.00;5.40;;;17.90;99.90;;;;;;5074547;28;20567;-70
2022/08/24 03:03:12;;;;;;;6.23;5.70;;;18.00;99.90;;;;;;5074328;28;20579;-70
2022/08/24 03:05:38;;;;;;;6.90;6.30;;;18.00;99.90;;;;;;5073886;28;21205;-70
2022/08/24 03:08:05;;;;;;;5.77;5.30;;;17.90;99.90;;;;;;5073750;28;20679;-70
2022/08/24 03:10:32;;;;;;;6.77;5.77;;;18.00;99.90;;;;;;5074048;28;20622;-70
2022/08/24 03:13:00;;;;;;;7.43;5.30;;;17.90;99.90;;;;;;5074212;28;20578;-70
2022/08/24 03:15:28;;;;;;;7.50;5.60;;;17.80;99.90;;;;;;5073874;28;20918;-70
2022/08/24 03:17:55;;;;;;;8.13;5.70;;;17.80;99.90;;;;;;5074132;28;20643;-70
2022/08/24 03:20:22;;;;;;;5.60;5.10;;;17.70;99.90;;;;;;5073866;28;21207;-70
2022/08/24 03:22:49;;;;;;;7.67;5.57;;;17.80;99.90;;;;;;5073256;28;20968;-70
2022/08/24 03:25:18;;;;;;;9.50;5.97;;;17.80;99.90;;;;;;5074094;28;20649;-70
2022/08/24 03:27:44;;;;;;;6.63;5.80;;;17.70;99.90;;;;;;5073536;28;20615;-70
2022/08/24 03:30:13;;;;;;;7.67;5.90;;;17.60;99.90;;;;;;5073560;28;20581;-70
2022/08/24 03:32:40;;;;;;;10.90;6.10;;;17.50;99.90;;;;;;5073725;28;20599;-70
2022/08/24 03:35:08;;;;;;;5.77;5.27;;;17.40;99.90;;;;;;5073532;28;20574;-70
2022/08/24 03:37:35;;;;;;;6.27;5.53;;;17.40;99.90;;;;;;5073841;28;20582;-70
2022/08/24 03:40:02;;;;;;;7.37;6.37;;;17.20;99.90;;;;;;5073779;28;20591;-70
2022/08/24 03:42:28;;;;;;;8.00;6.27;;;17.30;99.90;;;;;;5073500;28;20610;-70
2022/08/24 03:44:54;;;;;;;7.60;5.50;;;17.20;99.90;;;;;;5073894;28;20628;-70
2022/08/24 03:47:21;;;;;;;6.97;5.40;;;17.20;99.90;;;;;;5073364;28;20683;-70
2022/08/24 03:49:48;;;;;;;6.60;6.00;;;17.20;99.90;;;;;;5073339;28;21161;-70
2022/08/24 03:52:15;;;;;;;7.40;5.67;;;17.30;99.90;;;;;;5073812;28;20587;-70
2022/08/24 03:54:42;;;;;;;6.30;5.70;;;17.40;99.90;;;;;;5073503;28;20618;-70
2022/08/24 03:57:08;;;;;;;5.67;5.23;;;17.50;99.90;;;;;;5073188;28;20587;-70
2022/08/24 03:59:35;;;;;;;5.40;5.00;;;17.50;99.90;;;;;;5073292;28;20982;-70
2022/08/24 04:02:01;;;;;;;8.63;5.63;;;17.40;99.90;;;;;;5072963;28;20618;-70
2022/08/24 04:04:28;;;;;;;7.50;5.40;;;17.50;99.90;;;;;;5073331;28;20650;-70
2022/08/24 04:06:54;;;;;;;5.80;5.30;;;17.50;99.90;;;;;;5073050;28;20611;-70
2022/08/24 04:09:21;;;;;;;5.80;5.27;;;17.50;99.90;;;;;;5073393;28;20567;-70
2022/08/24 04:11:47;;;;;;;6.00;5.50;;;17.50;99.90;;;;;;5073022;28;20925;-72
2022/08/24 04:14:15;;;;;;;6.57;6.10;;;17.60;99.90;;;;;;5073044;28;21113;-70
2022/08/24 04:16:43;;;;;;;6.30;5.70;;;17.50;99.90;;;;;;5071755;28;20622;-70
2022/08/24 04:19:12;;;;;;;7.50;5.67;;;17.40;99.90;;;;;;5072627;28;21019;-70
2022/08/24 04:21:38;;;;;;;6.57;5.87;;;17.30;99.90;;;;;;5073400;28;20586;-70
2022/08/24 04:24:07;;;;;;;7.47;5.60;;;17.30;99.90;;;;;;5073261;28;20606;-70
2022/08/24 04:26:36;;;;;;;13.47;5.70;;;17.30;99.90;;;;;;5072691;28;20622;-70
2022/08/24 04:29:05;;;;;;;6.17;5.20;;;17.40;99.90;;;;;;5072944;28;21016;-70
2022/08/24 04:31:34;;;;;;;7.33;5.10;;;17.40;99.90;;;;;;5073045;28;20621;-70
2022/08/24 04:34:01;;;;;;;9.60;6.00;;;17.50;99.90;;;;;;5075965;28;20626;-70
2022/08/24 04:36:28;;;;;;;9.30;5.00;;;17.40;99.90;;;;;;5075719;28;21136;-70
2022/08/24 04:38:54;;;;;;;14.37;6.60;;;17.40;99.90;;;;;;5076960;28;20578;-70
2022/08/24 04:41:21;;;;;;;15.73;5.47;;;17.50;99.90;;;;;;5077114;28;20564;-70
2022/08/24 04:43:49;;;;;;;7.97;5.17;;;17.60;99.90;;;;;;5075773;28;20622;-70
2022/08/24 04:46:17;;;;;;;9.97;5.87;;;17.50;99.90;;;;;;5076741;28;20670;-70
2022/08/24 04:48:47;;;;;;;6.93;4.67;;;17.50;99.90;;;;;;5077245;28;20634;-70
2022/08/24 04:51:17;;;;;;;9.50;4.90;;;17.50;99.90;;;;;;5075648;28;21025;-72
2022/08/24 04:53:44;;;;;;;6.50;5.53;;;17.60;99.90;;;;;;5076809;28;21147;-71
2022/08/24 04:56:14;;;;;;;7.00;4.80;;;17.50;99.90;;;;;;5076747;28;20919;-70
2022/08/24 04:58:41;;;;;;;9.27;5.40;;;17.60;99.90;;;;;;5074953;28;20626;-70
2022/08/24 05:01:11;;;;;;;5.63;5.20;;;17.70;99.90;;;;;;5076883;28;20921;-70
2022/08/24 05:03:38;;;;;;;5.77;5.00;;;17.70;99.90;;;;;;5076416;28;20663;-70
2022/08/24 05:06:05;;;;;;;10.87;5.03;;;17.70;99.90;;;;;;5075238;28;20559;-70
2022/08/24 05:08:32;;;;;;;4.63;4.13;;;17.70;99.90;;;;;;5076375;28;20622;-70
2022/08/24 05:10:58;;;;;;;13.07;5.33;;;17.80;99.90;;;;;;5076793;28;20644;-70
2022/08/24 05:13:25;;;;;;;9.07;4.67;;;17.80;99.90;;;;;;5076408;28;20614;-70
2022/08/24 05:15:51;;;;;;;12.00;5.07;;;17.90;99.90;;;;;;5074989;28;20655;-71
2022/08/24 05:18:18;;;;;;;9.50;4.83;;;17.90;99.90;;;;;;5076545;28;20615;-71
2022/08/24 05:20:46;;;;;;;15.50;5.00;;;17.80;99.90;;;;;;5076293;28;20567;-71
2022/08/24 05:23:13;;;;;;;5.67;4.67;;;17.80;99.90;;;;;;5076468;28;20691;-71
2022/08/24 05:25:41;;;;;;;11.00;4.97;;;17.90;99.90;;;;;;5076175;28;20990;-71
2022/08/24 05:28:07;;;;;;;8.53;5.47;;;18.00;99.90;;;;;;5076031;28;20626;-71
2022/08/24 05:30:35;;;;;;;11.40;4.63;;;18.10;99.90;;;;;;5076149;28;20553;-71
2022/08/24 05:33:02;;;;;;;6.60;4.63;;;18.10;99.90;;;;;;5075782;28;20601;-71
2022/08/24 05:35:28;;;;;;;6.53;4.13;;;18.10;99.90;;;;;;5075763;28;20629;-71
2022/08/24 05:37:55;;;;;;;5.60;4.50;;;18.10;99.90;;;;;;5074749;28;20582;-71
2022/08/24 05:40:22;;;;;;;8.03;5.10;;;18.20;99.90;;;;;;5075970;28;20610;-71
2022/08/24 05:42:49;;;;;;;10.40;5.10;;;18.20;99.90;;;;;;5075751;28;20633;-72
2022/08/24 05:45:15;;;;;;;9.93;4.43;;;18.30;99.90;;;;;;5075400;28;20578;-71
2022/08/24 05:47:42;;;;;;;16.07;4.57;;;18.30;99.90;;;;;;5075589;28;21235;-71
2022/08/24 05:50:08;;;;;;;11.47;4.70;;;18.40;99.90;;;;;;5075775;28;20571;-72
2022/08/24 05:52:35;;;;;;;8.30;3.87;;;18.50;99.90;;;;;;5075644;28;20621;-71
2022/08/24 05:55:02;;;;;;;10.60;4.53;;;18.50;99.90;;;;;;5075739;28;20620;-71
2022/08/24 05:57:34;;;;;;;5.80;4.47;;;18.60;99.90;;;;;;5074705;28;20928;-71
2022/08/24 06:00:02;;;;;;;7.13;4.97;;;18.60;99.90;;;;;;5075987;28;20692;-71
2022/08/24 06:02:28;;;;;;;8.03;4.10;;;18.70;99.90;;;;;;5075562;28;21109;-71
2022/08/24 06:04:55;;;;;;;8.90;4.63;;;18.70;99.90;;;;;;5075205;28;20646;-71
2022/08/24 06:07:21;;;;;;;4.97;4.30;;;18.80;99.90;;;;;;5075705;28;20618;-72
2022/08/24 06:09:48;;;;;;;6.63;4.10;;;18.90;99.90;;;;;;5075541;28;20995;-71
2022/08/24 06:12:14;;;;;;;7.60;4.83;;;18.90;99.90;;;;;;5075696;28;20635;-71
2022/08/24 06:14:46;;;;;;;7.47;3.73;;;19.00;99.90;;;;;;5075550;28;21223;-71
2022/08/24 06:17:12;;;;;;;7.70;3.40;;;19.10;99.90;;;;;;5075274;28;20622;-71
2022/08/24 06:19:39;;;;;;;11.00;3.63;;;19.30;99.90;;;;;;5075040;28;20579;-71
2022/08/24 06:22:06;;;;;;;6.93;4.00;;;19.40;99.90;;;;;;5074764;28;20614;-71
2022/08/24 06:27:40;;;;;;;6.97;3.03;;;19.70;99.90;;;;;;5032804;28;20667;-71
2022/08/24 06:30:08;;;;;;;4.03;3.07;;;19.80;99.90;;;;;;5032653;28;20623;-71
2022/08/24 06:32:36;;;;;;;7.93;3.60;;;19.90;99.90;;;;;;5053143;28;20611;-71
2022/08/24 06:35:03;;;;;;;5.03;4.50;;;20.00;99.90;;;;;;5074720;28;20571;-71
2022/08/24 06:37:29;;;;;;;5.27;3.00;;;20.10;99.90;;;;;;5074813;28;20935;-71
2022/08/24 06:39:58;;;;;;;3.40;3.20;;;20.20;99.90;;;;;;5075423;28;20633;-71
2022/08/24 06:42:25;;;;;;;4.47;3.57;;;20.30;99.90;;;;;;5074601;28;20644;-71
2022/08/24 06:44:51;;;;;;;6.60;3.00;;;20.30;99.90;;;;;;5072965;28;20675;-71
2022/08/24 06:47:18;;;;;;;6.17;4.13;;;20.50;99.90;;;;;;5074951;28;20570;-71
2022/08/24 06:49:44;;;;;;;5.70;3.33;;;20.50;99.90;;;;;;5074780;28;20659;-71
2022/08/24 06:52:11;;;;;;;5.90;3.30;;;20.50;99.90;;;;;;5073259;28;20633;-71
2022/08/24 06:54:38;;;;;;;7.73;3.30;;;20.50;99.90;;;;;;5074498;28;20610;-71
2022/08/24 06:57:05;;;;;;;8.83;3.67;;;20.60;99.90;;;;;;5073420;28;20965;-71
2022/08/24 06:59:32;;;;;;;10.77;3.80;;;20.70;99.90;;;;;;5074685;28;20567;-71
2022/08/24 07:01:59;;;;;;;3.67;3.30;;;20.80;99.90;;;;;;5074161;28;20594;-71
2022/08/24 07:04:26;;;;;;;5.70;3.53;;;20.90;99.90;;;;;;5073657;28;20654;-71
2022/08/24 07:06:54;;;;;;;4.97;3.17;;;21.00;99.90;;;;;;5074310;28;20582;-71
2022/08/24 07:09:23;;;;;;;8.30;3.50;;;21.10;99.90;;;;;;5073137;28;20630;-71
2022/08/24 07:11:51;;;;;;;3.20;2.90;;;21.20;99.90;;;;;;5073694;28;20637;-71
2022/08/24 07:14:18;;;;;;;4.90;2.97;;;21.30;99.90;;;;;;5074008;28;20997;-71
2022/08/24 07:16:44;;;;;;;5.50;3.90;;;21.60;99.90;;;;;;5072563;28;20647;-71
2022/08/24 07:19:11;;;;;;;4.53;3.73;;;21.60;99.90;;;;;;5074238;28;20586;-71
2022/08/24 07:21:37;;;;;;;4.70;3.03;;;21.80;99.90;;;;;;5073830;28;20695;-71
2022/08/24 07:24:05;;;;;;;5.70;3.27;;;21.90;99.90;;;;;;5074164;28;20633;-71
2022/08/24 07:26:32;;;;;;;7.33;2.93;;;22.00;99.90;;;;;;5073294;28;20586;-71
2022/08/24 07:29:05;;;;;;;2.80;2.60;;;22.10;99.90;;;;;;5074345;28;20690;-71
2022/08/24 07:31:33;;;;;;;7.93;3.20;;;22.20;99.90;;;;;;5074066;28;21105;-71
2022/08/24 07:33:59;;;;;;;4.07;3.00;;;22.40;99.90;;;;;;5074586;28;20582;-71
2022/08/24 07:36:26;;;;;;;5.43;3.00;;;22.60;99.90;;;;;;5072804;28;20571;-71
2022/08/24 07:38:53;;;;;;;6.67;3.30;;;22.60;99.90;;;;;;5072478;28;20574;-71
2022/08/24 07:41:21;;;;;;;4.03;3.73;;;22.60;99.90;;;;;;5073698;28;20614;-71
2022/08/24 07:43:48;;;;;;;4.87;3.17;;;22.60;99.90;;;;;;5073481;28;20967;-71
2022/08/24 07:46:14;;;;;;;3.87;2.90;;;22.50;99.90;;;;;;5074815;28;20567;-71
2022/08/24 07:48:41;;;;;;;9.67;3.13;;;22.70;99.90;;;;;;5073741;28;20657;-71
2022/08/24 07:51:13;;;;;;;2.73;2.50;;;22.90;99.90;;;;;;5073514;28;20577;-71
2022/08/24 07:53:40;;;;;;;4.20;3.07;;;23.20;99.90;;;;;;5073598;28;20627;-71
2022/08/24 07:56:07;;;;;;;3.63;3.33;;;23.40;99.90;;;;;;5072756;28;20649;-71
2022/08/24 07:58:34;;;;;;;4.03;3.00;;;23.60;99.90;;;;;;5073536;28;20618;-71
2022/08/24 08:01:03;;;;;;;4.53;3.13;;;23.70;99.90;;;;;;5071842;28;20630;-71
2022/08/24 08:03:32;;;;;;;6.30;2.67;;;23.60;99.90;;;;;;5073098;28;20623;-71
2022/08/24 08:06:06;;;;;;;3.67;2.70;;;23.60;99.90;;;;;;5073220;28;20680;-71
2022/08/24 08:08:38;;;;;;;4.00;3.20;;;23.60;99.90;;;;;;5072477;28;20673;-73
2022/08/24 08:11:06;;;;;;;3.57;3.27;;;23.80;99.90;;;;;;5072947;28;20716;-71
2022/08/24 08:13:32;;;;;;;9.03;3.50;;;24.10;99.90;;;;;;5072903;28;20653;-71
2022/08/24 08:15:59;;;;;;;16.47;3.37;;;24.10;99.90;;;;;;5072096;28;20618;-71
2022/08/24 08:18:27;;;;;;;12.83;3.13;;;24.30;99.90;;;;;;5072277;28;20639;-71
2022/08/24 08:20:54;;;;;;;4.97;3.20;;;24.40;99.90;;;;;;5073659;28;20618;-71
2022/08/24 08:26:10;;;;;;;7.07;3.60;;;24.60;99.90;;;;;;5073159;28;20574;-71
2022/08/24 08:28:37;;;;;;;3.60;3.33;;;24.80;99.90;;;;;;5073257;28;20654;-71
2022/08/24 08:31:04;;;;;;;3.90;2.80;;;24.70;99.90;;;;;;5073209;28;21234;-71
2022/08/24 08:33:30;;;;;;;4.00;2.97;;;25.20;99.90;;;;;;5073443;28;20988;-71
2022/08/24 08:36:20;;;;;;;3.30;3.10;;;25.10;99.90;;;;;;5073255;28;21176;-71
2022/08/24 08:38:46;;;;;;;2.93;2.60;;;24.90;99.90;;;;;;5073247;28;20967;-71
2022/08/24 08:41:20;;;;;;;9.90;3.60;;;24.70;99.90;;;;;;5073381;28;20611;-71
2022/08/24 08:43:59;;;;;;;5.53;3.40;;;24.90;99.90;;;;;;5072554;28;20626;-71
2022/08/24 08:46:50;;;;;;;10.30;3.20;;;25.20;99.90;;;;;;5072551;28;20626;-71
2022/08/24 08:49:41;;;;;;;4.13;3.37;;;25.40;99.90;;;;;;5072926;28;21027;-71
2022/08/24 08:52:43;;;;;;;4.07;3.10;;;25.60;99.90;;;;;;5073143;28;20547;-71
2022/08/24 08:55:34;;;;;;;4.50;2.40;;;25.80;99.90;;;;;;5072750;28;20582;-71
2022/08/24 08:58:10;;;;;;;6.50;2.67;;;25.70;99.90;;;;;;5073221;28;20590;-71
2022/08/24 09:01:01;;;;;;;3.20;2.90;;;25.70;99.90;;;;;;5072150;28;20694;-71
2022/08/24 09:03:54;;;;;;;3.17;2.83;;;25.60;99.90;;;;;;5072712;28;20612;-71
2022/08/24 09:06:33;;;;;;;7.13;3.07;;;25.60;99.90;;;;;;5073141;28;20571;-71
2022/08/24 09:09:28;;;;;;;3.33;2.37;;;26.00;99.90;;;;;;5071170;28;20692;-71
2022/08/24 09:12:26;;;;;;;4.07;3.00;;;26.40;99.90;;;;;;5067900;28;20634;-71
2022/08/24 09:15:07;;;;;;;6.30;2.80;;;26.30;99.90;;;;;;5072518;28;20618;-71
2022/08/24 09:17:56;;;;;;;6.97;3.10;;;26.50;99.90;;;;;;5072813;28;21258;-71
2022/08/24 09:20:44;;;;;;;2.87;2.47;;;26.60;99.90;;;;;;5075004;28;20586;-71
2022/08/24 09:23:39;;;;;;;2.90;2.60;;;26.60;99.90;;;;;;5076638;28;20655;-71
2022/08/24 09:26:25;;;;;;;3.20;2.30;;;26.60;99.90;;;;;;5073160;28;21078;-71
2022/08/24 09:28:58;;;;;;;8.90;2.60;;;26.90;99.90;;;;;;5076123;28;21012;-71
2022/08/24 09:31:50;;;;;;;5.30;2.77;;;26.80;99.90;;;;;;5076068;28;20594;-71
2022/08/24 09:34:22;;;;;;;4.67;4.27;;;26.90;99.90;;;;;;5075922;28;20617;-71
2022/08/24 09:36:57;;;;;;;5.53;2.77;;;27.10;99.90;;;;;;5076378;28;20665;-71
2022/08/24 09:40:15;;;;;;;2.37;2.17;;;27.30;99.90;;;;;;5076039;28;20589;-71
2022/08/24 09:42:48;;;;;;;5.00;2.47;;;27.40;99.90;;;;;;5058353;28;20626;-71
2022/08/24 09:45:39;;;;;;;5.90;2.50;;;27.60;99.90;;;;;;5075953;28;20582;-71
2022/08/24 09:48:23;;;;;;;4.20;3.40;;;27.60;99.90;;;;;;5075923;28;20643;-71
2022/08/24 09:50:55;;;;;;;3.83;2.87;;;27.70;99.90;;;;;;5076156;28;20566;-71
2022/08/24 09:53:49;;;;;;;4.13;2.50;;;28.10;99.90;;;;;;5075783;28;20581;-71
2022/08/24 09:56:26;;;;;;;7.50;3.30;;;28.30;99.90;;;;;;5075778;28;20571;-71
2022/08/24 09:59:25;;;;;;;5.50;4.37;;;27.70;99.90;;;;;;5074043;28;20621;-71
2022/08/24 10:02:16;;;;;;;3.67;3.37;;;27.60;99.90;;;;;;5041971;28;20622;-71
2022/08/24 10:05:17;;;;;;;4.80;2.50;;;28.00;99.90;;;;;;5075637;28;20648;-71
2022/08/24 10:07:49;;;;;;;3.47;2.80;;;28.10;99.90;;;;;;5075471;28;20955;-71
2022/08/24 10:10:28;;;;;;;4.80;2.57;;;28.30;99.90;;;;;;5075555;28;20645;-71
2022/08/24 10:13:26;;;;;;;3.27;3.00;;;28.50;99.90;;;;;;5075478;28;20586;-71
2022/08/24 10:16:11;;;;;;;9.77;3.80;;;28.70;99.90;;;;;;5052472;28;20621;-71
2022/08/24 10:19:00;;;;;;;3.40;3.10;;;28.40;99.90;;;;;;5075643;28;20701;-71
2022/08/24 10:21:30;;;;;;;5.63;2.73;;;28.90;99.90;;;;;;5075438;28;20590;-71
2022/08/24 10:24:48;;;;;;;3.20;2.90;;;29.30;99.90;;;;;;5074881;28;20646;-71
2022/08/24 10:27:56;;;;;;;4.70;2.70;;;29.00;99.90;;;;;;5013362;28;20633;-71
2022/08/24 10:31:01;;;;;;;5.40;3.30;;;29.30;99.90;;;;;;5012792;28;20637;-71
2022/08/24 10:33:35;;;;;;;8.90;2.83;;;29.20;99.90;;;;;;5052340;28;20630;-71
2022/08/24 10:36:22;;;;;;;11.20;3.00;;;29.10;99.90;;;;;;5075171;28;20677;-71
2022/08/24 10:43:32;;;;;;;3.27;2.33;;;29.60;99.90;;;;;;5074592;28;20586;-71
2022/08/24 10:45:14;;;;;;;3.53;2.53;;;29.80;99.90;;;;;;5074773;28;20614;-71
2022/08/24 10:48:11;;;;;;;9.93;3.10;;;29.90;99.90;;;;;;5075011;28;20590;-71
2022/08/24 10:50:56;;;;;;;3.80;3.50;;;29.90;99.90;;;;;;5059387;28;21172;-71
2022/08/24 10:53:26;;;;;;;2.70;2.40;;;29.70;99.90;;;;;;5073212;28;20699;-71
2022/08/24 10:55:59;;;;;;;3.00;2.80;;;29.90;99.90;;;;;;5074481;28;20747;-71
2022/08/24 10:58:43;;;;;;;7.07;3.13;;;30.20;99.90;;;;;;5074906;28;20667;-71
2022/08/24 11:01:22;;;;;;;5.47;2.70;;;30.60;99.90;;;;;;5074737;28;20582;-71
2022/08/24 11:03:53;;;;;;;4.77;2.40;;;30.50;99.90;;;;;;5074004;28;20650;-71
2022/08/24 11:06:22;;;;;;;3.13;2.30;;;30.80;99.90;;;;;;5074579;28;20632;-71
2022/08/24 11:08:55;;;;;;;2.40;2.27;;;30.50;99.90;;;;;;5074156;28;20669;-71
2022/08/24 11:11:28;;;;;;;7.73;2.70;;;30.40;99.90;;;;;;5074176;28;21118;-71
2022/08/24 11:14:15;;;;;;;8.73;3.03;;;30.70;99.90;;;;;;5072288;28;20671;-71
2022/08/24 11:16:45;;;;;;;2.73;2.53;;;30.80;99.90;;;;;;5066656;28;21180;-71
2022/08/24 11:19:12;;;;;;;11.10;2.80;;;31.10;99.90;;;;;;5073915;28;20601;-71
2022/08/24 11:21:44;;;;;;;2.87;2.50;;;31.60;99.90;;;;;;5074001;28;20614;-71
2022/08/24 11:24:17;;;;;;;5.97;1.93;;;31.20;99.90;;;;;;5073859;28;20638;-71
2022/08/24 11:27:01;;;;;;;4.80;1.93;;;31.80;99.90;;;;;;5073821;28;21073;-70
2022/08/24 11:29:51;;;;;;;2.60;2.50;;;32.10;99.90;;;;;;5074151;28;20640;-70
2022/08/24 11:32:31;;;;;;;5.33;2.40;;;32.30;99.90;;;;;;5068668;28;20637;-70
2022/08/24 11:35:06;;;;;;;12.13;2.53;;;32.90;99.90;;;;;;5073025;28;20643;-70
2022/08/24 11:37:36;;;;;;;4.23;2.80;;;33.00;99.90;;;;;;5074414;28;20578;-70
2022/08/24 11:40:05;;;;;;;7.43;2.70;;;33.60;99.90;;;;;;5073802;28;21084;-70
2022/08/24 11:42:46;;;;;;;2.70;2.50;;;33.60;99.90;;;;;;5072682;28;20634;-70
2022/08/24 11:45:30;;;;;;;3.43;2.70;;;33.90;99.90;;;;;;5073795;28;20677;-70
2022/08/24 11:48:18;;;;;;;4.20;2.60;;;32.80;99.90;;;;;;5073723;28;20578;-70
2022/08/24 11:50:57;;;;;;;5.03;2.93;;;32.60;99.90;;;;;;5073571;28;20601;-70
2022/08/24 11:53:48;;;;;;;3.87;2.40;;;32.80;99.90;;;;;;5073527;28;20919;-70
2022/08/24 11:56:30;;;;;;;5.60;2.90;;;33.10;99.90;;;;;;5073108;28;20621;-70
2022/08/24 11:59:03;;;;;;;3.53;2.30;;;32.90;99.90;;;;;;5071381;28;20652;-70
2022/08/24 12:01:55;;;;;;;3.30;2.67;;;32.50;99.90;;;;;;5073087;28;20570;-70
2022/08/24 12:04:53;;;;;;;2.60;2.40;;;33.10;99.90;;;;;;5072936;28;20679;-70
2022/08/24 12:08:00;;;;;;;7.00;2.90;;;34.40;99.90;;;;;;5073425;28;20583;-70
2022/08/24 12:10:55;;;;;;;3.07;2.87;;;34.80;99.90;;;;;;5073273;28;20648;-70
2022/08/24 12:13:45;;;;;;;5.00;2.70;;;33.60;99.90;;;;;;5069052;28;20634;-70
2022/08/24 12:16:37;;;;;;;4.07;2.73;;;33.90;99.90;;;;;;5067405;28;20754;-70
2022/08/24 12:19:26;;;;;;;2.80;2.57;;;34.10;99.90;;;;;;5063792;28;20634;-70
2022/08/24 12:21:56;;;;;;;2.93;2.70;;;33.90;99.90;;;;;;5072979;28;20942;-70
2022/08/24 12:24:29;;;;;;;2.80;2.60;;;34.50;99.90;;;;;;5072945;28;20707;-70
2022/08/24 12:27:03;;;;;;;6.13;3.97;;;35.20;99.90;;;;;;5073171;28;20575;-70
2022/08/24 12:29:37;;;;;;;3.20;2.90;;;34.60;99.90;;;;;;5073155;28;20760;-70
2022/08/24 12:32:13;;;;;;;4.93;2.77;;;35.00;99.90;;;;;;5072744;28;20985;-70
2022/08/24 12:35:01;;;;;;;4.30;2.80;;;35.60;99.90;;;;;;5073170;28;20635;-70
2022/08/24 12:37:36;;;;;;;3.93;3.00;;;34.90;99.90;;;;;;5073227;28;20617;-70
2022/08/24 12:40:21;;;;;;;3.00;2.70;;;35.40;99.90;;;;;;5072930;28;20585;-70
2022/08/24 12:43:22;;;;;;;3.20;3.00;;;34.90;99.90;;;;;;5072559;28;20629;-70
2022/08/24 12:45:49;;;;;;;2.90;2.70;;;34.70;99.90;;;;;;5072609;28;20614;-70
2022/08/24 12:48:38;;;;;;;8.23;2.80;;;35.50;99.90;;;;;;5072628;28;21245;-70
2022/08/24 12:51:04;;;;;;;3.63;3.43;;;35.00;99.90;;;;;;5072955;28;20567;-70
2022/08/24 12:53:46;;;;;;;3.27;3.07;;;35.10;99.90;;;;;;5072958;28;20559;-70
2022/08/24 12:56:27;;;;;;;4.20;2.63;;;36.50;99.90;;;;;;5076268;28;20578;-70
2022/08/24 12:59:16;;;;;;;3.07;2.87;;;36.60;99.90;;;;;;5076811;28;20582;-70
2022/08/24 13:02:06;;;;;;;7.13;3.37;;;36.30;99.90;;;;;;5075966;28;21003;-70
2022/08/24 13:04:43;;;;;;;15.40;3.00;;;36.10;99.90;;;;;;5076169;28;20656;-70
2022/08/24 13:07:18;;;;;;;4.43;2.60;;;35.70;99.90;;;;;;5076563;28;20597;-70
2022/08/24 13:09:46;;;;;;;4.57;2.60;;;35.50;99.90;;;;;;5076115;28;20629;-70
2022/08/24 13:12:37;;;;;;;3.33;3.03;;;34.70;99.90;;;;;;5076204;28;20979;-70
2022/08/24 13:15:21;;;;;;;3.10;2.90;;;34.90;99.90;;;;;;5076170;28;20586;-70
2022/08/24 13:17:59;;;;;;;2.90;2.70;;;35.50;99.90;;;;;;5076086;28;20578;-71
2022/08/24 13:20:35;;;;;;;3.67;2.70;;;35.80;99.90;;;;;;5076299;28;20707;-71
2022/08/24 13:23:12;;;;;;;6.17;2.80;;;35.60;99.90;;;;;;5076073;28;20570;-71
2022/08/24 13:25:50;;;;;;;5.77;3.30;;;35.30;99.90;;;;;;5075476;28;20626;-70